New Castle, New Hampshire
Current Conditions -  °F | °C
As of 12:58 PM on Wednesday 28 Jan 2015 (Local Time) from KPSM Reporting Station
Broken Clouds Broken Clouds  
Wind Chill: 10°   Ceiling: 14000
Heat Index: 22°   Visibility: 10mi
Dew Point:   Wind: 13mph
Humidity: 54%   Direction: 320°NW
Pressure: 29.92"   Gusts: NA
Location:  43.07°N, 70.72°W
Report Text: KPSM 281758Z 32011KT 10SM BKN140 M05/M13 A2992 RMK AO2A SLP137 4/021 T10531133 11049 21102 58001
Loading
Personal Weather Stations






























Interactive Weather Map New forecast layout! Learn more

10-Day Weather Forecast

Advertisements
Track Severe Weather on mobile